Terminal Aerodrome Forecast
Issued by NWS Bismarck, ND

Home | Current Version | Previous Version | Text Only | Print | Product List | Glossary On
Versions: 1 2 3 4 5 6 7 8 9 10 11 12 13 14 15
000
FTUS43 KBIS 222300
TAFBIS
TAF
KBIS 222338Z 2300/2324 14012KT P6SM FEW250
     FM230200 14008KT P6SM FEW250
     FM231600 15012KT P6SM BKN120=

USA.gov is the U.S. government's official web portal to all federal, state and local government web resources and services.